North Oaks, Indiana
Current Conditions -  °F | °C
As of 8:54 AM on Friday 31 Oct 2014 (Local Time) from KFWA Reporting Station
Light Rain Light Rain  
Wind Chill: 36°   Ceiling: 1400
Heat Index: 42°   Visibility: 4mi
Dew Point: 40°   Wind: 10mph
Humidity: 92%   Direction: 300°WNW
Pressure: 29.95"   Gusts: NA
Location:  40.7175°N, 85.1549°W
Report Text: KFWA 311254Z 30009KT 4SM -RA BR SCT009 BKN014 OVC021 06/04 A2995 RMK AO2 SLP145 P0000 T00560044
Loading
Personal Weather Stations






























Interactive Weather Map
Tropical Storm Tracking
New forecast layout! Learn more

10-Day Weather Forecast

Advertisements
Track Severe Weather on mobile